createdAt,value
2022-11-02T00:01:44.410Z,13.60
2022-11-02T00:04:14.135Z,13.62
2022-11-02T00:06:42.086Z,13.67
2022-11-02T00:09:09.669Z,13.70
2022-11-02T00:11:37.819Z,13.74
2022-11-02T00:14:06.219Z,13.76
2022-11-02T00:16:33.919Z,13.80
2022-11-02T00:19:01.547Z,13.82
2022-11-02T00:21:29.149Z,13.84
2022-11-02T00:23:56.739Z,13.86
2022-11-02T00:26:24.733Z,13.87
2022-11-02T00:28:53.875Z,13.88
2022-11-02T00:31:21.581Z,13.90
2022-11-02T00:33:49.182Z,13.93
2022-11-02T00:36:17.614Z,13.98
2022-11-02T00:38:45.588Z,14.01
2022-11-02T00:41:15.155Z,14.02
2022-11-02T00:43:42.707Z,14.03
2022-11-02T00:46:10.319Z,14.04
2022-11-02T00:48:37.962Z,14.03
2022-11-02T00:51:05.907Z,14.01
2022-11-02T00:53:34.411Z,13.94
2022-11-02T00:56:02.049Z,13.89
2022-11-02T00:58:29.955Z,13.79
2022-11-02T01:00:57.899Z,13.71
2022-11-02T01:03:25.950Z,13.59
2022-11-02T01:05:53.541Z,13.51
2022-11-02T01:08:21.136Z,13.50
2022-11-02T01:10:48.737Z,13.51
2022-11-02T01:13:16.301Z,13.55
2022-11-02T01:15:44.811Z,13.55
2022-11-02T01:18:13.345Z,13.57
2022-11-02T01:20:41.371Z,13.57
2022-11-02T01:23:08.953Z,13.58
2022-11-02T01:25:36.591Z,13.61
2022-11-02T01:28:05.166Z,13.63
2022-11-02T01:30:35.172Z,13.62
2022-11-02T01:33:02.814Z,13.63
2022-11-02T01:35:30.401Z,13.63
2022-11-02T01:37:57.995Z,13.65
2022-11-02T01:40:26.565Z,13.65
2022-11-02T01:42:54.222Z,13.63
2022-11-02T01:45:21.823Z,13.65
2022-11-02T01:47:49.452Z,13.66
2022-11-02T01:50:17.021Z,13.65
2022-11-02T01:52:44.991Z,13.63
2022-11-02T01:55:13.348Z,13.61
2022-11-02T01:57:40.911Z,13.58
2022-11-02T02:00:08.492Z,13.54
2022-11-02T02:02:36.754Z,13.51
2022-11-02T02:05:04.876Z,13.47
2022-11-02T02:07:32.448Z,13.44
2022-11-02T02:10:00.551Z,13.42
2022-11-02T02:12:28.139Z,13.40
2022-11-02T02:14:55.719Z,13.43
2022-11-02T02:17:23.671Z,13.46
2022-11-02T02:19:52.438Z,13.52
2022-11-02T02:22:20.742Z,13.58
2022-11-02T02:24:48.655Z,13.63
2022-11-02T02:27:16.247Z,13.67
2022-11-02T02:29:44.221Z,13.71
2022-11-02T02:32:11.825Z,13.74
2022-11-02T02:34:39.364Z,13.74
2022-11-02T02:37:08.163Z,13.70
2022-11-02T02:39:35.775Z,13.66
2022-11-02T02:42:03.695Z,13.65
2022-11-02T02:44:32.027Z,13.63
2022-11-02T02:47:00.178Z,13.62
2022-11-02T02:49:27.747Z,13.59
2022-11-02T02:51:55.313Z,13.55
2022-11-02T02:54:23.278Z,13.52
2022-11-02T02:56:52.996Z,13.47
2022-11-02T02:59:20.550Z,13.45
2022-11-02T03:01:48.236Z,13.42
2022-11-02T03:04:15.864Z,13.40
2022-11-02T03:06:43.793Z,13.39
2022-11-02T03:09:12.557Z,13.36
2022-11-02T03:11:40.111Z,13.37
2022-11-02T03:14:07.690Z,13.35
2022-11-02T03:16:35.242Z,13.32
2022-11-02T03:19:03.160Z,13.31
2022-11-02T03:21:30.728Z,13.32
2022-11-02T03:23:58.294Z,13.33
2022-11-02T03:26:25.813Z,13.35
2022-11-02T03:28:53.698Z,13.33
2022-11-02T03:31:21.710Z,13.31
2022-11-02T03:33:49.238Z,13.29
2022-11-02T03:36:16.766Z,13.29
2022-11-02T03:38:44.390Z,13.27
2022-11-02T03:41:12.118Z,13.22
2022-11-02T03:43:40.068Z,13.23
2022-11-02T03:46:08.123Z,13.23
2022-11-02T03:48:35.649Z,13.21
2022-11-02T03:51:03.471Z,13.19
2022-11-02T03:53:31.067Z,13.20
2022-11-02T03:55:59.024Z,13.18
2022-11-02T03:58:27.863Z,13.14
2022-11-02T04:00:55.426Z,13.12
2022-11-02T04:03:22.988Z,13.10
2022-11-02T04:05:50.497Z,13.10
2022-11-02T04:08:24.966Z,13.07
2022-11-02T04:11:09.746Z,13.07
2022-11-02T04:13:55.106Z,13.05
2022-11-02T04:16:27.785Z,13.02
2022-11-02T04:19:13.005Z,13.00
2022-11-02T04:21:40.555Z,12.98
2022-11-02T04:24:25.358Z,12.94
2022-11-02T04:26:52.898Z,12.92
2022-11-02T04:29:20.846Z,12.90
2022-11-02T04:31:48.896Z,12.88
2022-11-02T04:34:15.409Z,12.83
2022-11-02T04:36:42.962Z,12.81
2022-11-02T04:39:09.538Z,12.80
2022-11-02T04:41:45.712Z,12.78
2022-11-02T04:44:13.363Z,12.79
2022-11-02T04:46:40.899Z,12.78
2022-11-02T04:49:08.469Z,12.77
2022-11-02T04:51:36.077Z,12.77
2022-11-02T04:54:09.897Z,12.78
2022-11-02T04:56:37.468Z,12.79
2022-11-02T04:59:04.996Z,12.81
2022-11-02T05:01:32.765Z,12.81
2022-11-02T05:04:00.431Z,12.83
2022-11-02T05:06:30.623Z,12.82
2022-11-02T05:08:58.182Z,12.80
2022-11-02T05:11:25.812Z,12.77
2022-11-02T05:13:53.375Z,12.73
2022-11-02T05:16:21.275Z,12.71
2022-11-02T05:18:51.382Z,12.68
2022-11-02T05:21:18.951Z,12.65
2022-11-02T05:23:46.569Z,12.62
2022-11-02T05:26:14.593Z,12.62
2022-11-02T05:28:42.233Z,12.66
2022-11-02T05:31:11.696Z,12.68
2022-11-02T05:33:39.300Z,12.69
2022-11-02T05:36:06.890Z,12.70
2022-11-02T05:38:34.544Z,12.73
2022-11-02T05:41:02.195Z,12.74
2022-11-02T05:43:29.818Z,12.75
2022-11-02T05:45:57.435Z,12.73
2022-11-02T05:48:25.035Z,12.72
2022-11-02T05:50:52.610Z,12.71
2022-11-02T05:53:20.150Z,12.69
2022-11-02T05:55:48.637Z,12.69
2022-11-02T05:58:16.535Z,12.69
2022-11-02T06:00:44.217Z,12.76
2022-11-02T06:03:11.943Z,12.81
2022-11-02T06:05:39.539Z,12.88
2022-11-02T06:08:08.857Z,12.91
2022-11-02T06:10:36.455Z,12.94
2022-11-02T06:13:04.370Z,12.94
2022-11-02T06:15:32.500Z,12.94
2022-11-02T06:18:00.191Z,12.92
2022-11-02T06:20:31.736Z,12.91
2022-11-02T06:22:59.311Z,12.91
2022-11-02T06:25:27.710Z,12.93
2022-11-02T06:27:56.675Z,12.94
2022-11-02T06:30:24.244Z,12.97
2022-11-02T06:32:52.203Z,13.01
2022-11-02T06:35:19.774Z,13.03
2022-11-02T06:37:47.349Z,13.06
2022-11-02T06:40:15.008Z,13.09
2022-11-02T06:42:45.175Z,13.13
2022-11-02T06:45:24.329Z,13.14
2022-11-02T06:47:51.953Z,13.15
2022-11-02T06:50:19.525Z,13.15
2022-11-02T06:52:47.099Z,13.12
2022-11-02T06:55:14.700Z,13.12
2022-11-02T06:57:42.791Z,13.11
2022-11-02T07:00:11.233Z,13.10
2022-11-02T07:02:39.174Z,13.12
2022-11-02T07:05:06.794Z,13.14
2022-11-02T07:07:34.393Z,13.18
2022-11-02T07:10:03.617Z,13.19
2022-11-02T07:12:31.254Z,13.24
2022-11-02T07:14:58.939Z,13.31
2022-11-02T07:17:31.895Z,13.36
2022-11-02T07:19:59.880Z,13.41
2022-11-02T07:22:28.614Z,13.45
2022-11-02T07:24:56.585Z,13.44
2022-11-02T07:27:24.219Z,13.43
2022-11-02T07:29:51.804Z,13.46
2022-11-02T07:32:19.500Z,13.49
2022-11-02T07:34:47.464Z,13.54
2022-11-02T07:37:15.118Z,13.58
2022-11-02T07:39:42.811Z,13.59
2022-11-02T07:42:10.582Z,13.59
2022-11-02T07:44:39.027Z,13.59
2022-11-02T07:47:09.949Z,13.59
2022-11-02T07:49:37.629Z,13.61
2022-11-02T07:52:05.372Z,13.59
2022-11-02T07:54:33.043Z,13.58
2022-11-02T07:57:01.003Z,13.59
2022-11-02T07:59:29.216Z,13.63
2022-11-02T08:01:56.970Z,13.67
2022-11-02T08:04:24.687Z,13.73
2022-11-02T08:06:52.436Z,13.75
2022-11-02T08:09:20.176Z,13.77
2022-11-02T08:11:49.163Z,13.79
2022-11-02T08:14:16.779Z,13.76
2022-11-02T08:16:44.607Z,13.71
2022-11-02T08:19:12.324Z,13.64
2022-11-02T08:21:40.016Z,13.58
2022-11-02T08:24:08.674Z,13.52
2022-11-02T08:26:38.675Z,13.51
2022-11-02T08:29:09.068Z,13.56
2022-11-02T08:31:36.949Z,13.62
2022-11-02T08:34:04.841Z,13.69
2022-11-02T08:36:34.355Z,13.75
2022-11-02T08:39:02.112Z,13.79
2022-11-02T08:41:29.931Z,13.84
2022-11-02T08:43:59.252Z,13.88
2022-11-02T08:46:27.003Z,13.97
2022-11-02T08:48:55.114Z,14.07
2022-11-02T08:51:23.145Z,14.13
2022-11-02T08:53:52.019Z,14.13
2022-11-02T08:56:19.870Z,14.12
2022-11-02T08:58:47.549Z,14.09
2022-11-02T09:01:15.672Z,14.05
2022-11-02T09:03:43.417Z,13.98
2022-11-02T09:06:11.193Z,13.91
2022-11-02T09:08:38.821Z,13.90
2022-11-02T09:11:06.709Z,13.95
2022-11-02T09:13:37.625Z,14.03
2022-11-02T09:16:05.393Z,14.13
2022-11-02T09:18:33.105Z,14.23
2022-11-02T09:21:00.726Z,14.31
2022-11-02T09:23:28.436Z,14.36
2022-11-02T09:25:56.668Z,14.42
2022-11-02T09:28:24.433Z,14.53
2022-11-02T09:30:52.303Z,14.61
2022-11-02T09:33:20.074Z,14.69
2022-11-02T09:35:48.190Z,14.74
2022-11-02T09:38:19.105Z,14.73
2022-11-02T09:40:46.841Z,14.65
2022-11-02T09:43:14.664Z,14.64
2022-11-02T09:45:42.393Z,14.76
2022-11-02T09:48:22.061Z,14.98
2022-11-02T09:50:56.459Z,15.25
2022-11-02T09:53:27.093Z,15.72
2022-11-02T09:55:55.206Z,16.16
2022-11-02T09:58:22.994Z,16.50
2022-11-02T10:00:50.764Z,16.68
2022-11-02T10:03:18.994Z,16.91
2022-11-02T10:05:46.831Z,17.56
2022-11-02T10:08:14.631Z,18.16
2022-11-02T10:10:42.413Z,18.75
2022-11-02T10:13:10.299Z,19.23
2022-11-02T10:15:38.918Z,19.55
2022-11-02T10:18:07.014Z,19.60
2022-11-02T10:20:34.734Z,19.87
2022-11-02T10:23:03.923Z,19.89
2022-11-02T10:25:31.823Z,19.12
2022-11-02T10:28:01.826Z,18.26
2022-11-02T10:30:29.649Z,17.45
2022-11-02T10:32:57.409Z,16.94
2022-11-02T10:35:40.988Z,17.09
2022-11-02T10:38:15.435Z,17.51
2022-11-02T10:40:43.562Z,17.71
2022-11-02T10:43:11.336Z,17.78
2022-11-02T10:45:39.265Z,17.89
2022-11-02T10:48:07.326Z,17.75
2022-11-02T10:50:35.654Z,17.92
2022-11-02T10:53:27.390Z,18.14
2022-11-02T10:55:51.429Z,18.26
2022-11-02T10:58:19.436Z,18.22
2022-11-02T11:00:49.562Z,18.14
2022-11-02T11:03:17.398Z,18.06
2022-11-02T11:05:45.774Z,18.06
2022-11-02T11:08:13.698Z,17.95
2022-11-02T11:10:44.273Z,17.74
2022-11-02T11:15:59.910Z,17.45
2022-11-02T11:21:16.018Z,17.15
2022-11-02T11:23:45.867Z,17.00
2022-11-02T11:26:13.559Z,16.83
2022-11-02T11:28:41.831Z,16.76
2022-11-02T11:31:09.668Z,16.80
2022-11-02T11:33:37.444Z,16.87
2022-11-02T11:36:06.728Z,17.02
2022-11-02T11:38:34.578Z,17.13
2022-11-02T11:41:02.343Z,17.12
2022-11-02T11:43:30.575Z,17.04
2022-11-02T11:46:04.831Z,16.94
2022-11-02T11:48:33.652Z,16.82
2022-11-02T11:51:01.356Z,16.74
2022-11-02T11:53:29.378Z,16.69
2022-11-02T11:55:58.387Z,16.69
2022-11-02T11:58:26.129Z,16.72
2022-11-02T12:00:58.281Z,16.82
2022-11-02T12:03:26.276Z,17.00
2022-11-02T12:05:54.132Z,17.12
2022-11-02T12:08:21.882Z,17.14
2022-11-02T12:10:49.538Z,17.08
2022-11-02T12:13:17.829Z,16.99
2022-11-02T12:15:45.642Z,16.96
2022-11-02T12:18:13.512Z,16.92
2022-11-02T12:20:41.428Z,16.90
2022-11-02T12:23:09.443Z,16.85
2022-11-02T12:25:37.766Z,16.82
2022-11-02T12:28:05.621Z,16.72
2022-11-02T12:30:33.363Z,16.62
2022-11-02T12:33:01.243Z,16.55
2022-11-02T12:35:30.287Z,16.46
2022-11-02T12:38:00.144Z,16.36
2022-11-02T12:40:27.970Z,16.34
2022-11-02T12:42:56.340Z,16.43
2022-11-02T12:45:24.560Z,16.52
2022-11-02T12:47:52.384Z,16.62
2022-11-02T12:50:22.123Z,16.70
2022-11-02T12:52:49.861Z,16.66
2022-11-02T12:55:17.649Z,16.78
2022-11-02T12:57:45.521Z,16.89
2022-11-02T13:00:13.358Z,16.91
2022-11-02T13:02:42.228Z,16.80
2022-11-02T13:05:09.945Z,16.52
2022-11-02T13:07:37.611Z,16.30
2022-11-02T13:10:05.530Z,16.13
2022-11-02T13:12:33.336Z,15.97
2022-11-02T13:15:01.580Z,15.89
2022-11-02T13:17:29.433Z,15.93
2022-11-02T13:19:57.867Z,15.84
2022-11-02T13:22:25.747Z,15.74
2022-11-02T13:24:53.618Z,15.71
2022-11-02T13:27:35.884Z,15.93
2022-11-02T13:30:04.859Z,16.16
2022-11-02T13:32:34.055Z,16.41
2022-11-02T13:35:02.136Z,16.58
2022-11-02T13:37:31.394Z,16.71
2022-11-02T13:39:59.263Z,16.88
2022-11-02T13:42:27.044Z,17.02
2022-11-02T13:44:54.949Z,17.18
2022-11-02T13:47:23.155Z,17.21
2022-11-02T13:49:52.988Z,17.02
2022-11-02T13:52:20.835Z,16.75
2022-11-02T13:54:48.746Z,16.44
2022-11-02T13:57:16.540Z,16.58
2022-11-02T13:59:44.325Z,16.75
2022-11-02T14:02:13.873Z,17.09
2022-11-02T14:04:41.884Z,17.50
2022-11-02T14:07:09.807Z,17.84
2022-11-02T14:09:37.760Z,18.04
2022-11-02T14:12:05.536Z,18.15
2022-11-02T14:14:33.592Z,18.18
2022-11-02T14:19:34.179Z,18.07
2022-11-02T14:22:01.947Z,18.07
2022-11-02T14:24:29.879Z,17.68
2022-11-02T14:26:59.842Z,17.17
2022-11-02T14:29:27.781Z,16.75
2022-11-02T14:31:55.590Z,16.41
2022-11-02T14:34:23.359Z,16.18
2022-11-02T14:36:51.167Z,16.38
2022-11-02T14:39:20.579Z,16.39
2022-11-02T14:41:48.334Z,16.69
2022-11-02T14:44:16.040Z,16.94
2022-11-02T14:46:43.979Z,16.95
2022-11-02T14:49:11.747Z,16.84
2022-11-02T14:51:40.576Z,16.64
2022-11-02T14:54:09.225Z,16.40
2022-11-02T14:56:37.147Z,16.16
2022-11-02T14:59:05.089Z,15.93
2022-11-02T15:01:32.951Z,15.72
2022-11-02T15:04:01.271Z,15.55
2022-11-02T15:06:29.413Z,15.38
2022-11-02T15:08:57.326Z,15.26
2022-11-02T15:11:25.171Z,15.13
2022-11-02T15:13:53.334Z,15.03
2022-11-02T15:16:23.511Z,14.93
2022-11-02T15:18:51.385Z,14.83
2022-11-02T15:21:19.172Z,14.72
2022-11-02T15:23:47.119Z,14.62
2022-11-02T15:26:15.138Z,14.52
2022-11-02T15:28:43.370Z,14.40
2022-11-02T15:31:11.320Z,14.29
2022-11-02T15:33:39.124Z,14.20
2022-11-02T15:36:07.262Z,14.12
2022-11-02T15:38:39.735Z,14.03
2022-11-02T15:41:10.595Z,13.92
2022-11-02T15:43:38.700Z,13.83
2022-11-02T15:46:09.452Z,13.73
2022-11-02T15:48:37.528Z,13.63
2022-11-02T15:51:05.466Z,13.51
2022-11-02T15:53:35.050Z,13.40
2022-11-02T15:56:02.921Z,13.26
2022-11-02T15:58:31.179Z,13.14
2022-11-02T16:00:59.031Z,13.04
2022-11-02T16:03:27.024Z,12.92
2022-11-02T16:05:58.328Z,12.81
2022-11-02T16:08:28.284Z,12.69
2022-11-02T16:10:56.142Z,12.57
2022-11-02T16:13:24.947Z,12.47
2022-11-02T16:15:54.787Z,12.36
2022-11-02T16:18:23.355Z,12.26
2022-11-02T16:20:51.261Z,12.18
2022-11-02T16:23:19.073Z,12.08
2022-11-02T16:25:46.884Z,12.00
2022-11-02T16:28:14.838Z,11.94
2022-11-02T16:30:46.671Z,11.87
2022-11-02T16:33:14.517Z,11.82
2022-11-02T16:35:42.521Z,11.75
2022-11-02T16:38:10.405Z,11.72
2022-11-02T16:40:38.242Z,11.70
2022-11-02T16:43:07.860Z,11.68
2022-11-02T16:45:40.287Z,11.66
2022-11-02T16:48:11.420Z,11.62
2022-11-02T16:50:39.306Z,11.59
2022-11-02T16:53:08.392Z,11.50
2022-11-02T16:55:36.271Z,11.43
2022-11-02T16:58:04.312Z,11.36
2022-11-02T17:00:32.382Z,11.31
2022-11-02T17:03:00.259Z,11.27
2022-11-02T17:05:28.771Z,11.23
2022-11-02T17:07:56.678Z,11.19
2022-11-02T17:10:24.710Z,11.18
2022-11-02T17:12:52.580Z,11.12
2022-11-02T17:15:20.386Z,11.05
2022-11-02T17:17:49.316Z,11.02
2022-11-02T17:20:17.267Z,11.00
2022-11-02T17:22:45.439Z,11.01
2022-11-02T17:25:13.335Z,11.02
2022-11-02T17:27:42.699Z,11.06
2022-11-02T17:30:12.448Z,11.10
2022-11-02T17:32:40.383Z,11.12
2022-11-02T17:35:08.830Z,11.14
2022-11-02T17:37:36.696Z,11.16
2022-11-02T17:40:04.610Z,11.19
2022-11-02T17:42:51.125Z,11.20
2022-11-02T17:45:19.994Z,11.23
2022-11-02T17:47:47.801Z,11.26
2022-11-02T17:50:15.607Z,11.27
2022-11-02T17:52:43.447Z,11.25
2022-11-02T17:55:12.143Z,11.25
2022-11-02T17:57:39.904Z,11.25
2022-11-02T18:00:07.890Z,11.24
2022-11-02T18:02:35.764Z,11.21
2022-11-02T18:05:03.945Z,11.15
2022-11-02T18:07:32.478Z,11.11
2022-11-02T18:10:02.202Z,11.10
2022-11-02T18:12:29.981Z,11.15
2022-11-02T18:14:57.936Z,11.16
2022-11-02T18:17:27.880Z,11.19
2022-11-02T18:19:59.639Z,11.24
2022-11-02T18:22:27.644Z,11.31
2022-11-02T18:24:55.434Z,11.34
2022-11-02T18:27:26.359Z,11.37
2022-11-02T18:29:56.475Z,11.40
2022-11-02T18:32:24.809Z,11.44
2022-11-02T18:34:54.107Z,11.47
2022-11-02T18:37:23.143Z,11.52
2022-11-02T18:39:51.025Z,11.55
2022-11-02T18:42:18.808Z,11.57
2022-11-02T18:44:46.519Z,11.58
2022-11-02T18:47:15.334Z,11.59
2022-11-02T18:49:43.416Z,11.60
2022-11-02T18:52:11.204Z,11.58
2022-11-02T18:54:39.255Z,11.56
2022-11-02T18:57:07.431Z,11.55
2022-11-02T18:59:36.263Z,11.54
2022-11-02T19:02:05.039Z,11.51
2022-11-02T19:04:32.899Z,11.48
2022-11-02T19:07:18.251Z,11.45
2022-11-02T19:09:47.174Z,11.46
2022-11-02T19:12:14.952Z,11.46
2022-11-02T19:14:42.834Z,11.47
2022-11-02T19:17:10.671Z,11.48
2022-11-02T19:19:40.203Z,11.51
2022-11-02T19:22:08.740Z,11.54
2022-11-02T19:24:36.542Z,11.56
2022-11-02T19:27:04.362Z,11.59
2022-11-02T19:29:32.253Z,11.59
2022-11-02T19:32:00.711Z,11.61
2022-11-02T19:34:30.706Z,11.64
2022-11-02T19:36:58.983Z,11.66
2022-11-02T19:39:26.825Z,11.71
2022-11-02T19:41:54.681Z,11.71
2022-11-02T19:44:23.026Z,11.70
2022-11-02T19:46:51.324Z,11.69
2022-11-02T19:49:19.118Z,11.69
2022-11-02T19:51:47.117Z,11.67
2022-11-02T19:54:15.863Z,11.64
2022-11-02T19:56:43.739Z,11.63
2022-11-02T19:59:13.443Z,11.61
2022-11-02T20:01:42.296Z,11.58
2022-11-02T20:04:10.161Z,11.56
2022-11-02T20:06:38.209Z,11.54
2022-11-02T20:09:06.543Z,11.52
2022-11-02T20:11:34.388Z,11.52
2022-11-02T20:14:02.611Z,11.53
2022-11-02T20:16:30.735Z,11.52
2022-11-02T20:18:59.215Z,11.52
2022-11-02T20:21:32.365Z,11.55
2022-11-02T20:24:05.131Z,11.57
2022-11-02T20:26:33.027Z,11.61
2022-11-02T20:29:00.817Z,11.62
2022-11-02T20:31:28.993Z,11.63
2022-11-02T20:33:56.842Z,11.66
2022-11-02T20:36:24.746Z,11.66
2022-11-02T20:38:52.461Z,11.68
2022-11-02T20:41:20.739Z,11.66
2022-11-02T20:43:48.908Z,11.64
2022-11-02T20:46:36.036Z,11.65
2022-11-02T20:49:20.017Z,11.65
2022-11-02T20:51:49.345Z,11.67
2022-11-02T20:54:19.039Z,11.67
2022-11-02T20:56:47.179Z,11.66
2022-11-02T20:59:17.070Z,11.66
2022-11-02T21:01:45.128Z,11.66
2022-11-02T21:04:19.817Z,11.66
2022-11-02T21:06:48.886Z,11.67
2022-11-02T21:09:17.013Z,11.69
2022-11-02T21:12:02.229Z,11.72
2022-11-02T21:14:30.069Z,11.74
2022-11-02T21:16:58.071Z,11.74
2022-11-02T21:19:27.891Z,11.76
2022-11-02T21:21:59.671Z,11.79
2022-11-02T21:24:28.352Z,11.82
2022-11-02T21:26:56.218Z,11.87
2022-11-02T21:29:24.708Z,11.88
2022-11-02T21:31:53.723Z,11.91
2022-11-02T21:34:21.601Z,11.91
2022-11-02T21:36:49.673Z,11.89
2022-11-02T21:39:17.448Z,11.89
2022-11-02T21:41:45.274Z,11.89
2022-11-02T21:44:13.863Z,11.88
2022-11-02T21:46:41.669Z,11.87
2022-11-02T21:49:11.137Z,11.86
2022-11-02T21:51:38.865Z,11.87
2022-11-02T21:54:07.070Z,11.86
2022-11-02T21:56:36.219Z,11.86
2022-11-02T21:59:05.417Z,11.85
2022-11-02T22:01:49.948Z,11.83
2022-11-02T22:04:20.020Z,11.82
2022-11-02T22:06:47.866Z,11.84
2022-11-02T22:09:15.681Z,11.84
2022-11-02T22:11:45.084Z,11.87
2022-11-02T22:14:11.870Z,11.86
2022-11-02T22:16:39.922Z,11.84
2022-11-02T22:19:09.735Z,11.84
2022-11-02T22:21:37.433Z,11.84
2022-11-02T22:24:05.263Z,11.87
2022-11-02T22:26:33.112Z,11.89
2022-11-02T22:29:01.987Z,11.90
2022-11-02T22:31:31.024Z,11.89
2022-11-02T22:33:58.723Z,11.88
2022-11-02T22:36:26.388Z,11.88
2022-11-02T22:38:53.997Z,11.87
2022-11-02T22:41:22.143Z,11.85
2022-11-02T22:43:50.509Z,11.86
2022-11-02T22:46:18.244Z,11.87
2022-11-02T22:48:45.914Z,11.90
2022-11-02T22:51:14.187Z,11.90
2022-11-02T22:53:42.200Z,11.91
2022-11-02T22:56:12.031Z,11.92
2022-11-02T22:58:39.789Z,11.96
2022-11-02T23:01:07.462Z,11.97
2022-11-02T23:03:35.422Z,11.99
2022-11-02T23:06:03.382Z,11.99
2022-11-02T23:08:31.164Z,12.00
2022-11-02T23:11:16.362Z,12.00
2022-11-02T23:13:44.688Z,12.01
2022-11-02T23:16:24.663Z,12.03
2022-11-02T23:19:09.593Z,12.03
2022-11-02T23:21:39.305Z,12.03
2022-11-02T23:24:24.481Z,12.03
2022-11-02T23:26:52.464Z,12.03
2022-11-02T23:29:37.566Z,12.02
2022-11-02T23:32:22.440Z,12.01
2022-11-02T23:35:07.271Z,12.02
2022-11-02T23:37:35.388Z,12.03
2022-11-02T23:40:03.119Z,12.03
2022-11-02T23:42:30.715Z,12.05
2022-11-02T23:44:58.720Z,12.05
2022-11-02T23:47:55.055Z,12.07
2022-11-02T23:50:36.431Z,12.06
2022-11-02T23:53:21.601Z,12.08
2022-11-02T23:56:06.414Z,12.09
2022-11-02T23:58:34.225Z,12.09
